Time;durP1;ratioP1;P1;durP2;ratioP2;P2;SDS_P1;SDS_P2;PMS_P1;PMS_P2;Temp;Humidity;BMP_temperature;BMP_pressure;BME280_temperature;BME280_humidity;BME280_pressure;Samples;Min_cycle;Max_cycle;Signal;HPM_P1;HPM_P2
2022/11/14 00:01:19;;;;;;;106.37;38.10;;;;;;;;;;5068023;28;20200;-68
2022/11/14 00:03:48;;;;;;;102.40;37.03;;;;;;;;;;5080551;28;20524;-68
2022/11/14 00:06:14;;;;;;;104.80;36.00;;;;;;;;;;5066977;28;20226;-68
2022/11/14 00:08:39;;;;;;;103.07;38.57;;;;;;;;;;5076292;28;20180;-67
2022/11/14 00:11:04;;;;;;;109.87;38.83;;;;;;;;;;5075603;28;20201;-68
2022/11/14 00:13:30;;;;;;;102.50;37.07;;;;;;;;;;5067703;28;20197;-68
2022/11/14 00:15:55;;;;;;;106.87;37.53;;;;;;;;;;5073313;28;20211;-67
2022/11/14 00:18:21;;;;;;;108.73;37.50;;;;;;;;;;5073430;28;20228;-67
2022/11/14 00:20:50;;;;;;;104.87;38.10;;;;;;;;;;5083373;28;20183;-67
2022/11/14 00:23:16;;;;;;;112.00;37.33;;;;;;;;;;5077069;28;20447;-67
2022/11/14 00:25:43;;;;;;;107.77;37.23;;;;;;;;;;5078605;28;20176;-67
2022/11/14 00:28:08;;;;;;;104.67;38.10;;;;;;;;;;5075886;28;20176;-67
2022/11/14 00:30:33;;;;;;;115.70;37.23;;;;;;;;;;5080395;28;20712;-67
2022/11/14 00:32:59;;;;;;;115.23;39.77;;;;;;;;;;5075657;28;20312;-67
2022/11/14 00:35:24;;;;;;;123.90;40.03;;;;;;;;;;5075230;28;20192;-67
2022/11/14 00:37:49;;;;;;;107.53;37.20;;;;;;;;;;5076377;28;20517;-67
2022/11/14 00:40:15;;;;;;;104.50;37.03;;;;;;;;;;5078672;28;20223;-67
2022/11/14 00:42:40;;;;;;;117.63;40.93;;;;;;;;;;5071780;28;20204;-67
2022/11/14 00:45:06;;;;;;;119.30;41.77;;;;;;;;;;5077740;28;20187;-67
2022/11/14 00:47:31;;;;;;;124.17;40.30;;;;;;;;;;5076736;28;20184;-67
2022/11/14 00:49:56;;;;;;;109.53;38.67;;;;;;;;;;5077124;28;20311;-67
2022/11/14 00:52:22;;;;;;;117.87;39.03;;;;;;;;;;5080619;28;20212;-67
2022/11/14 00:54:47;;;;;;;119.57;40.60;;;;;;;;;;5077454;28;20208;-67
2022/11/14 00:57:12;;;;;;;116.80;39.93;;;;;;;;;;5082555;28;20184;-67
2022/11/14 00:59:38;;;;;;;120.77;39.70;;;;;;;;;;5080669;28;20181;-67
2022/11/14 01:02:03;;;;;;;120.37;38.40;;;;;;;;;;5077376;28;20255;-67
2022/11/14 01:04:28;;;;;;;125.53;41.77;;;;;;;;;;5075041;28;20208;-67
2022/11/14 01:06:54;;;;;;;128.27;41.53;;;;;;;;;;5077311;28;20389;-67
2022/11/14 01:09:19;;;;;;;131.10;41.17;;;;;;;;;;5076701;28;20210;-67
2022/11/14 01:11:44;;;;;;;123.93;40.60;;;;;;;;;;5083117;28;20712;-67
2022/11/14 01:14:10;;;;;;;127.40;41.13;;;;;;;;;;5085598;28;20952;-67
2022/11/14 01:16:35;;;;;;;127.13;40.73;;;;;;;;;;5074555;28;20267;-67
2022/11/14 01:19:01;;;;;;;120.97;39.13;;;;;;;;;;5078149;28;20275;-67
2022/11/14 01:21:27;;;;;;;129.90;41.47;;;;;;;;;;5076459;28;20568;-67
2022/11/14 01:23:52;;;;;;;133.57;42.10;;;;;;;;;;5078273;28;20185;-67
2022/11/14 01:26:17;;;;;;;120.60;40.83;;;;;;;;;;5082571;28;20223;-67
2022/11/14 01:28:43;;;;;;;146.20;45.73;;;;;;;;;;5075670;28;20192;-67
2022/11/14 01:31:20;;;;;;;139.53;42.70;;;;;;;;;;5074341;28;20294;-67
2022/11/14 01:33:49;;;;;;;130.37;41.57;;;;;;;;;;5083227;28;20211;-67
2022/11/14 01:36:14;;;;;;;136.10;41.90;;;;;;;;;;5072447;28;20184;-67
2022/11/14 01:38:40;;;;;;;135.20;42.40;;;;;;;;;;5085575;28;20225;-67
2022/11/14 01:41:06;;;;;;;136.03;41.43;;;;;;;;;;5077205;28;20180;-67
2022/11/14 01:43:33;;;;;;;150.90;44.10;;;;;;;;;;5079322;28;20179;-67
2022/11/14 01:46:00;;;;;;;146.30;42.73;;;;;;;;;;5081627;28;20188;-67
2022/11/14 01:48:44;;;;;;;136.23;42.70;;;;;;;;;;5079148;28;20184;-67
2022/11/14 01:51:31;;;;;;;127.23;40.83;;;;;;;;;;5083157;28;20204;-67
2022/11/14 01:54:00;;;;;;;141.40;42.40;;;;;;;;;;5083860;28;20192;-67
2022/11/14 01:56:35;;;;;;;146.10;43.17;;;;;;;;;;5073619;28;20177;-67
2022/11/14 01:59:12;;;;;;;138.20;42.13;;;;;;;;;;5070537;28;20531;-67
2022/11/14 02:01:44;;;;;;;143.00;42.00;;;;;;;;;;5071637;28;20582;-67
2022/11/14 02:04:13;;;;;;;152.17;44.83;;;;;;;;;;5071949;28;20192;-67
2022/11/14 02:06:39;;;;;;;143.73;41.97;;;;;;;;;;5084742;28;20229;-67
2022/11/14 02:09:06;;;;;;;152.27;46.00;;;;;;;;;;5071377;28;20640;-67
2022/11/14 02:11:36;;;;;;;145.33;43.63;;;;;;;;;;5081544;28;20566;-67
2022/11/14 02:14:01;;;;;;;149.93;45.03;;;;;;;;;;5085948;28;20676;-67
2022/11/14 02:16:27;;;;;;;152.27;45.37;;;;;;;;;;5072153;28;20184;-67
2022/11/14 02:18:52;;;;;;;141.30;43.63;;;;;;;;;;5070055;28;20180;-67
2022/11/14 02:21:18;;;;;;;138.97;44.20;;;;;;;;;;5072749;28;20185;-69
2022/11/14 02:23:43;;;;;;;149.80;43.43;;;;;;;;;;5077505;28;20180;-67
2022/11/14 02:26:08;;;;;;;139.23;43.60;;;;;;;;;;5081721;28;20181;-68
2022/11/14 02:28:34;;;;;;;153.07;42.97;;;;;;;;;;5073219;28;20176;-67
2022/11/14 02:30:59;;;;;;;146.07;44.47;;;;;;;;;;5081428;28;20216;-67
2022/11/14 02:33:24;;;;;;;140.80;42.57;;;;;;;;;;5078446;28;20233;-67
2022/11/14 02:35:50;;;;;;;135.97;44.03;;;;;;;;;;5078156;28;20185;-67
2022/11/14 02:38:15;;;;;;;145.70;44.53;;;;;;;;;;5069658;28;20197;-67
2022/11/14 02:40:41;;;;;;;151.47;44.77;;;;;;;;;;5072453;28;20494;-67
2022/11/14 02:43:06;;;;;;;143.20;43.83;;;;;;;;;;5071671;28;20188;-68
2022/11/14 02:45:31;;;;;;;146.03;43.73;;;;;;;;;;5070697;28;20495;-67
2022/11/14 02:47:57;;;;;;;146.10;44.33;;;;;;;;;;5079907;28;20195;-67
2022/11/14 02:50:22;;;;;;;155.13;45.80;;;;;;;;;;5075346;28;20204;-67
2022/11/14 02:52:48;;;;;;;138.43;42.93;;;;;;;;;;5074574;28;20559;-68
2022/11/14 02:55:13;;;;;;;143.77;44.20;;;;;;;;;;5079726;28;20176;-68
2022/11/14 02:57:38;;;;;;;141.03;43.93;;;;;;;;;;5074256;28;20176;-67
2022/11/14 03:00:05;;;;;;;151.80;44.63;;;;;;;;;;5077389;28;20189;-68
2022/11/14 03:02:30;;;;;;;149.83;44.90;;;;;;;;;;5068871;28;20185;-68
2022/11/14 03:04:55;;;;;;;152.27;44.77;;;;;;;;;;5076093;28;20188;-68
2022/11/14 03:07:21;;;;;;;150.17;44.50;;;;;;;;;;5079643;28;20229;-68
2022/11/14 03:09:46;;;;;;;141.93;44.27;;;;;;;;;;5078413;28;20307;-68
2022/11/14 03:12:16;;;;;;;150.07;44.10;;;;;;;;;;5075926;28;20210;-68
2022/11/14 03:14:42;;;;;;;138.90;43.10;;;;;;;;;;5083401;28;20197;-67
2022/11/14 03:17:07;;;;;;;144.40;45.33;;;;;;;;;;5081181;28;20180;-68
2022/11/14 03:19:32;;;;;;;141.30;42.60;;;;;;;;;;5085347;28;20187;-68
2022/11/14 03:21:58;;;;;;;131.40;42.50;;;;;;;;;;5082676;28;20253;-67
2022/11/14 03:24:23;;;;;;;146.27;43.27;;;;;;;;;;5077894;28;20280;-67
2022/11/14 03:26:48;;;;;;;146.70;43.93;;;;;;;;;;5080648;28;20191;-67
2022/11/14 03:29:14;;;;;;;137.40;43.23;;;;;;;;;;5070387;28;20546;-67
2022/11/14 03:31:39;;;;;;;138.37;43.07;;;;;;;;;;5077023;28;20262;-67
2022/11/14 03:34:04;;;;;;;149.17;43.70;;;;;;;;;;5082640;28;20184;-67
2022/11/14 03:36:30;;;;;;;139.77;43.60;;;;;;;;;;5075612;28;20188;-67
2022/11/14 03:38:55;;;;;;;147.87;43.90;;;;;;;;;;5086729;28;20184;-68
2022/11/14 03:41:20;;;;;;;140.23;41.70;;;;;;;;;;5074473;28;20219;-68
2022/11/14 03:43:46;;;;;;;132.33;41.53;;;;;;;;;;5068828;28;20184;-68
2022/11/14 03:46:11;;;;;;;140.80;43.30;;;;;;;;;;5079984;28;20313;-67
2022/11/14 03:48:37;;;;;;;143.73;43.50;;;;;;;;;;5073863;28;20238;-68
2022/11/14 03:51:02;;;;;;;142.10;41.43;;;;;;;;;;5076439;28;20687;-67
2022/11/14 03:53:27;;;;;;;145.80;42.07;;;;;;;;;;5078779;28;20641;-67
2022/11/14 03:55:53;;;;;;;140.00;43.97;;;;;;;;;;5077491;28;20827;-67
2022/11/14 03:58:19;;;;;;;150.03;45.00;;;;;;;;;;5072813;28;20185;-67
2022/11/14 04:00:44;;;;;;;140.67;42.43;;;;;;;;;;5083217;28;20179;-67
2022/11/14 04:03:09;;;;;;;146.53;43.67;;;;;;;;;;5077199;28;20183;-67
2022/11/14 04:05:35;;;;;;;145.40;43.50;;;;;;;;;;5076671;28;20237;-68
2022/11/14 04:08:03;;;;;;;143.00;43.07;;;;;;;;;;5079483;28;20195;-68
2022/11/14 04:10:29;;;;;;;154.33;44.63;;;;;;;;;;5074328;28;20201;-68
2022/11/14 04:12:54;;;;;;;140.77;42.20;;;;;;;;;;5080489;28;20273;-68
2022/11/14 04:15:20;;;;;;;150.73;43.80;;;;;;;;;;5066585;28;20532;-68
2022/11/14 04:17:46;;;;;;;145.17;41.93;;;;;;;;;;5070640;28;20187;-68
2022/11/14 04:20:13;;;;;;;150.40;45.83;;;;;;;;;;5072451;28;20180;-68
2022/11/14 04:22:38;;;;;;;138.20;41.90;;;;;;;;;;5079772;28;20333;-68
2022/11/14 04:25:05;;;;;;;143.83;44.30;;;;;;;;;;5080582;28;20259;-68
2022/11/14 04:27:30;;;;;;;146.80;44.23;;;;;;;;;;5073925;28;20605;-68
2022/11/14 04:29:56;;;;;;;149.07;43.90;;;;;;;;;;5069782;28;20287;-68
2022/11/14 04:32:21;;;;;;;154.73;44.07;;;;;;;;;;5080172;28;20226;-68
2022/11/14 04:34:46;;;;;;;154.00;44.90;;;;;;;;;;5085816;28;20673;-68
2022/11/14 04:37:12;;;;;;;145.43;47.00;;;;;;;;;;5080560;28;20188;-68
2022/11/14 04:39:37;;;;;;;147.47;43.93;;;;;;;;;;5083068;28;20187;-68
2022/11/14 04:42:03;;;;;;;150.60;44.60;;;;;;;;;;5080337;28;20181;-68
2022/11/14 04:44:28;;;;;;;137.53;42.73;;;;;;;;;;5079129;28;20188;-68
2022/11/14 04:46:53;;;;;;;157.83;44.50;;;;;;;;;;5079472;28;20184;-68
2022/11/14 04:49:19;;;;;;;151.60;43.57;;;;;;;;;;5077328;28;20241;-68
2022/11/14 04:51:44;;;;;;;159.07;44.67;;;;;;;;;;5080462;28;20268;-68
2022/11/14 04:54:09;;;;;;;146.50;44.47;;;;;;;;;;5071632;28;20503;-68
2022/11/14 04:56:35;;;;;;;149.40;43.00;;;;;;;;;;5072033;28;20176;-68
2022/11/14 04:59:00;;;;;;;137.67;42.40;;;;;;;;;;5078800;28;20187;-68
2022/11/14 05:01:25;;;;;;;153.17;43.33;;;;;;;;;;5072139;28;20231;-68
2022/11/14 05:03:51;;;;;;;150.17;44.70;;;;;;;;;;5080244;28;20290;-68
2022/11/14 05:06:16;;;;;;;146.60;44.47;;;;;;;;;;5075683;28;20176;-68
2022/11/14 05:08:41;;;;;;;151.57;44.47;;;;;;;;;;5076894;28;20208;-68
2022/11/14 05:11:15;;;;;;;150.03;45.20;;;;;;;;;;5072792;28;20191;-68
2022/11/14 05:13:41;;;;;;;135.47;40.97;;;;;;;;;;5082209;28;20640;-68
2022/11/14 05:16:07;;;;;;;147.17;44.20;;;;;;;;;;5076412;28;20264;-68
2022/11/14 05:18:32;;;;;;;149.67;44.33;;;;;;;;;;5074354;28;20266;-68
2022/11/14 05:20:59;;;;;;;150.50;45.57;;;;;;;;;;5077234;28;20238;-68
2022/11/14 05:23:24;;;;;;;137.17;43.67;;;;;;;;;;5081677;28;20176;-68
2022/11/14 05:26:00;;;;;;;148.23;43.43;;;;;;;;;;5077710;28;20507;-67
2022/11/14 05:28:25;;;;;;;134.00;42.43;;;;;;;;;;5077842;28;20280;-68
2022/11/14 05:30:50;;;;;;;144.63;42.87;;;;;;;;;;5077760;28;20687;-68
2022/11/14 05:33:16;;;;;;;136.33;43.10;;;;;;;;;;5079938;28;20229;-67
2022/11/14 05:35:41;;;;;;;143.80;43.50;;;;;;;;;;5078010;28;20180;-68
2022/11/14 05:38:06;;;;;;;146.07;42.43;;;;;;;;;;5073970;28;20648;-68
2022/11/14 05:40:32;;;;;;;146.97;43.40;;;;;;;;;;5072686;28;20200;-68
2022/11/14 05:42:57;;;;;;;155.07;44.40;;;;;;;;;;5072774;28;20188;-68
2022/11/14 05:45:22;;;;;;;136.53;41.90;;;;;;;;;;5081344;28;20172;-68
2022/11/14 05:47:48;;;;;;;143.23;43.97;;;;;;;;;;5074468;28;20197;-68
2022/11/14 05:50:13;;;;;;;147.73;44.33;;;;;;;;;;5077708;28;20184;-68
2022/11/14 05:52:38;;;;;;;140.20;42.90;;;;;;;;;;5073620;28;20179;-68
2022/11/14 05:55:04;;;;;;;147.10;42.87;;;;;;;;;;5072159;28;20183;-68
2022/11/14 05:57:29;;;;;;;141.80;42.83;;;;;;;;;;5083606;28;20203;-68
2022/11/14 05:59:56;;;;;;;152.73;44.37;;;;;;;;;;5074446;28;20188;-68
2022/11/14 06:02:22;;;;;;;147.73;42.13;;;;;;;;;;5072768;28;20202;-68
2022/11/14 06:04:47;;;;;;;135.07;43.30;;;;;;;;;;5071476;28;20604;-68
2022/11/14 06:07:12;;;;;;;138.37;42.53;;;;;;;;;;5078262;28;20265;-68
2022/11/14 06:09:38;;;;;;;148.77;43.10;;;;;;;;;;5073393;28;20189;-68
2022/11/14 06:12:06;;;;;;;145.13;44.20;;;;;;;;;;5075685;28;20546;-68
2022/11/14 06:14:32;;;;;;;142.83;42.90;;;;;;;;;;5069533;28;20188;-68
2022/11/14 06:16:57;;;;;;;140.53;44.10;;;;;;;;;;5083520;28;20180;-68
2022/11/14 06:19:22;;;;;;;147.73;44.13;;;;;;;;;;5074175;28;20187;-68
2022/11/14 06:21:48;;;;;;;140.37;43.40;;;;;;;;;;5075478;28;20504;-68
2022/11/14 06:24:13;;;;;;;148.30;44.50;;;;;;;;;;5079041;28;20216;-68
2022/11/14 06:26:38;;;;;;;146.37;45.43;;;;;;;;;;5085779;28;20201;-68
2022/11/14 06:29:04;;;;;;;140.20;41.63;;;;;;;;;;5079254;28;20215;-68
2022/11/14 06:31:29;;;;;;;143.33;42.27;;;;;;;;;;5077449;28;20216;-68
2022/11/14 06:33:55;;;;;;;138.30;43.07;;;;;;;;;;5080206;28;20227;-68
2022/11/14 06:36:21;;;;;;;139.70;43.37;;;;;;;;;;5078355;28;20260;-68
2022/11/14 06:38:46;;;;;;;152.57;44.37;;;;;;;;;;5087695;28;20176;-68
2022/11/14 06:41:14;;;;;;;152.03;44.83;;;;;;;;;;5086439;28;20208;-69
2022/11/14 06:43:42;;;;;;;146.30;42.50;;;;;;;;;;5071310;28;20180;-68
2022/11/14 06:46:10;;;;;;;141.07;41.97;;;;;;;;;;5073667;28;20692;-68
2022/11/14 06:48:36;;;;;;;147.93;44.33;;;;;;;;;;5072195;28;20350;-68
2022/11/14 06:51:03;;;;;;;132.90;42.50;;;;;;;;;;5071064;28;20192;-68
2022/11/14 06:53:30;;;;;;;132.40;42.70;;;;;;;;;;5069625;28;20184;-68
2022/11/14 06:55:58;;;;;;;139.40;44.00;;;;;;;;;;5066102;28;20184;-68
2022/11/14 06:58:34;;;;;;;144.77;43.63;;;;;;;;;;5071610;28;20208;-68
2022/11/14 07:01:10;;;;;;;145.73;43.53;;;;;;;;;;5073410;28;20236;-68
2022/11/14 07:03:35;;;;;;;134.70;41.83;;;;;;;;;;5069456;28;20263;-68
2022/11/14 07:06:02;;;;;;;143.93;44.80;;;;;;;;;;5074028;28;20622;-68
2022/11/14 07:08:28;;;;;;;132.93;42.53;;;;;;;;;;5074331;28;20234;-68
2022/11/14 07:10:53;;;;;;;139.77;42.67;;;;;;;;;;5079060;28;20497;-68
2022/11/14 07:13:19;;;;;;;128.37;43.23;;;;;;;;;;5084355;28;20180;-68
2022/11/14 07:15:54;;;;;;;144.10;42.00;;;;;;;;;;5075846;28;20643;-68
2022/11/14 07:18:19;;;;;;;132.77;42.90;;;;;;;;;;5080106;28;20180;-68
2022/11/14 07:20:45;;;;;;;126.47;40.87;;;;;;;;;;5069068;28;20342;-68
2022/11/14 07:23:11;;;;;;;147.53;45.13;;;;;;;;;;5075501;28;20691;-68
2022/11/14 07:25:36;;;;;;;137.03;42.53;;;;;;;;;;5072300;28;20636;-69
2022/11/14 07:28:01;;;;;;;136.63;41.53;;;;;;;;;;5067474;28;20641;-68
2022/11/14 07:30:27;;;;;;;140.27;40.37;;;;;;;;;;5075911;28;20188;-69
2022/11/14 07:32:56;;;;;;;148.47;43.90;;;;;;;;;;5069759;28;20688;-69
2022/11/14 07:35:22;;;;;;;136.40;42.47;;;;;;;;;;5075435;28;20172;-68
2022/11/14 07:37:48;;;;;;;124.13;41.00;;;;;;;;;;5069748;28;20565;-68
2022/11/14 07:40:13;;;;;;;143.30;43.53;;;;;;;;;;5070167;28;20192;-68
2022/11/14 07:42:39;;;;;;;132.90;41.77;;;;;;;;;;5071057;28;20197;-68
2022/11/14 07:45:05;;;;;;;137.27;43.83;;;;;;;;;;5073714;28;20257;-69
2022/11/14 07:47:30;;;;;;;140.37;45.23;;;;;;;;;;5071066;28;20216;-68
2022/11/14 07:49:55;;;;;;;141.00;44.33;;;;;;;;;;5073723;28;20192;-68
2022/11/14 07:52:21;;;;;;;136.57;42.10;;;;;;;;;;5072214;28;20169;-68
2022/11/14 07:54:46;;;;;;;132.83;42.73;;;;;;;;;;5067931;28;20547;-69
2022/11/14 07:57:12;;;;;;;132.73;43.47;;;;;;;;;;5072628;28;20280;-68
2022/11/14 07:59:37;;;;;;;131.73;42.93;;;;;;;;;;5073414;28;20683;-68
2022/11/14 08:02:02;;;;;;;134.37;44.13;;;;;;;;;;5073217;28;20212;-68
2022/11/14 08:04:28;;;;;;;129.47;42.13;;;;;;;;;;5080617;28;20173;-68
2022/11/14 08:06:53;;;;;;;137.40;44.63;;;;;;;;;;5069719;28;20200;-68
2022/11/14 08:09:18;;;;;;;145.87;44.83;;;;;;;;;;5077968;28;20187;-68
2022/11/14 08:11:46;;;;;;;142.07;47.03;;;;;;;;;;5068988;28;20177;-68
2022/11/14 08:14:12;;;;;;;137.57;43.27;;;;;;;;;;5076173;28;20581;-68
2022/11/14 08:16:37;;;;;;;130.17;45.20;;;;;;;;;;5076773;28;20183;-68
2022/11/14 08:19:02;;;;;;;137.60;43.87;;;;;;;;;;5067506;28;20181;-68
2022/11/14 08:21:28;;;;;;;132.63;43.43;;;;;;;;;;5071108;28;20648;-68
2022/11/14 08:23:53;;;;;;;124.57;42.60;;;;;;;;;;5069955;28;20659;-68
2022/11/14 08:26:18;;;;;;;128.00;44.27;;;;;;;;;;5080663;28;20195;-70
2022/11/14 08:28:43;;;;;;;134.57;44.23;;;;;;;;;;5079911;28;20180;-69
2022/11/14 08:31:09;;;;;;;126.60;41.03;;;;;;;;;;5074085;28;20188;-70
2022/11/14 08:33:35;;;;;;;126.00;42.73;;;;;;;;;;5067974;28;20239;-69
2022/11/14 08:36:05;;;;;;;118.07;41.03;;;;;;;;;;5076422;28;20236;-69
2022/11/14 08:38:32;;;;;;;121.47;44.67;;;;;;;;;;5071000;28;20184;-69
2022/11/14 08:40:58;;;;;;;119.37;43.13;;;;;;;;;;5064165;28;20286;-69
2022/11/14 08:43:24;;;;;;;118.23;41.17;;;;;;;;;;5069087;28;20594;-69
2022/11/14 08:45:49;;;;;;;117.60;42.23;;;;;;;;;;5067069;28;20200;-69
2022/11/14 08:48:15;;;;;;;131.27;43.43;;;;;;;;;;5075703;28;20263;-69
2022/11/14 08:50:40;;;;;;;118.87;42.87;;;;;;;;;;5070332;28;20634;-69
2022/11/14 08:53:05;;;;;;;118.87;43.57;;;;;;;;;;5070137;28;20267;-69
2022/11/14 08:55:31;;;;;;;116.03;42.40;;;;;;;;;;5072153;28;20652;-69
2022/11/14 08:57:56;;;;;;;108.07;40.83;;;;;;;;;;5086017;28;20550;-70
2022/11/14 09:00:21;;;;;;;112.00;41.17;;;;;;;;;;5084535;28;20663;-70
2022/11/14 09:02:47;;;;;;;114.70;44.33;;;;;;;;;;5075788;28;20207;-69
2022/11/14 09:05:12;;;;;;;108.20;42.30;;;;;;;;;;5080192;28;20184;-70
2022/11/14 09:07:37;;;;;;;102.30;40.97;;;;;;;;;;5079374;28;20181;-69
2022/11/14 09:10:04;;;;;;;96.80;40.10;;;;;;;;;;5072394;28;20172;-69
2022/11/14 09:12:29;;;;;;;103.50;41.40;;;;;;;;;;5079926;28;20185;-69
2022/11/14 09:14:54;;;;;;;100.67;41.10;;;;;;;;;;5078706;28;20259;-69
2022/11/14 09:17:20;;;;;;;92.43;39.47;;;;;;;;;;5077406;28;20180;-69
2022/11/14 09:19:45;;;;;;;96.93;38.90;;;;;;;;;;5075624;28;20615;-69
2022/11/14 09:22:11;;;;;;;96.27;39.43;;;;;;;;;;5073505;28;20200;-69
2022/11/14 09:24:36;;;;;;;86.67;36.60;;;;;;;;;;5072012;28;20533;-69
2022/11/14 09:27:02;;;;;;;89.77;37.60;;;;;;;;;;5070454;28;20181;-69
2022/11/14 09:29:27;;;;;;;84.87;37.87;;;;;;;;;;5072067;28;20663;-69
2022/11/14 09:31:53;;;;;;;83.37;36.33;;;;;;;;;;5079055;28;20204;-69
2022/11/14 09:34:19;;;;;;;85.87;37.33;;;;;;;;;;5074706;28;20730;-69
2022/11/14 09:36:45;;;;;;;77.37;36.77;;;;;;;;;;5073905;28;20208;-68
2022/11/14 09:39:11;;;;;;;73.77;34.87;;;;;;;;;;5071710;28;20188;-69
2022/11/14 09:41:54;;;;;;;68.03;33.43;;;;;;;;;;5070895;28;20201;-68
2022/11/14 09:44:32;;;;;;;69.90;32.63;;;;;;;;;;5076831;28;20177;-68
2022/11/14 09:47:01;;;;;;;70.20;32.60;;;;;;;;;;5075753;28;20248;-69
2022/11/14 09:49:39;;;;;;;65.27;31.23;;;;;;;;;;5079275;28;20184;-69
2022/11/14 09:52:26;;;;;;;62.77;30.40;;;;;;;;;;5076021;28;20643;-67
2022/11/14 09:55:15;;;;;;;59.80;30.20;;;;;;;;;;5076446;28;20184;-68
2022/11/14 09:57:43;;;;;;;57.07;29.10;;;;;;;;;;5076970;28;20645;-68
2022/11/14 10:00:14;;;;;;;58.77;29.57;;;;;;;;;;5073628;28;20185;-68
2022/11/14 10:03:04;;;;;;;55.73;28.63;;;;;;;;;;5072935;28;20644;-68
2022/11/14 10:06:17;;;;;;;54.63;27.43;;;;;;;;;;5079640;28;20184;-68
2022/11/14 10:09:04;;;;;;;54.83;28.60;;;;;;;;;;5030648;28;20192;-68
2022/11/14 10:11:42;;;;;;;50.53;26.87;;;;;;;;;;5076645;28;20203;-68
2022/11/14 10:14:21;;;;;;;57.40;27.77;;;;;;;;;;5079900;28;20198;-68
2022/11/14 10:16:53;;;;;;;48.30;26.53;;;;;;;;;;5074278;28;20188;-68
2022/11/14 10:19:33;;;;;;;48.63;25.83;;;;;;;;;;5071655;28;20189;-68
2022/11/14 10:22:17;;;;;;;47.90;26.03;;;;;;;;;;5071843;28;22854;-67
2022/11/14 10:24:50;;;;;;;45.63;24.77;;;;;;;;;;5076872;28;20196;-68
2022/11/14 10:27:28;;;;;;;43.80;23.83;;;;;;;;;;5073314;28;20460;-68
2022/11/14 10:30:09;;;;;;;44.87;24.27;;;;;;;;;;5084246;28;20183;-67
2022/11/14 10:32:59;;;;;;;43.77;23.53;;;;;;;;;;5068609;28;20232;-67
2022/11/14 10:35:34;;;;;;;41.20;22.00;;;;;;;;;;5073232;28;20193;-67
2022/11/14 10:38:18;;;;;;;41.27;23.30;;;;;;;;;;5071303;28;20182;-67
2022/11/14 10:40:53;;;;;;;43.73;23.17;;;;;;;;;;5086428;28;20219;-68
2022/11/14 10:43:28;;;;;;;38.73;22.43;;;;;;;;;;5079145;28;20175;-68
2022/11/14 10:46:00;;;;;;;38.20;22.90;;;;;;;;;;5077854;28;20179;-68
2022/11/14 10:48:32;;;;;;;36.30;22.23;;;;;;;;;;5079772;28;20180;-68
2022/11/14 10:51:01;;;;;;;36.83;21.57;;;;;;;;;;5090290;28;20188;-68
2022/11/14 10:53:50;;;;;;;38.63;21.10;;;;;;;;;;5083416;28;20185;-68
2022/11/14 10:56:16;;;;;;;35.80;20.67;;;;;;;;;;5077385;28;20595;-68
2022/11/14 10:58:43;;;;;;;37.40;20.27;;;;;;;;;;5089305;28;20267;-67
2022/11/14 11:01:41;;;;;;;36.30;19.70;;;;;;;;;;5090258;28;20218;-67
2022/11/14 11:04:12;;;;;;;36.37;20.63;;;;;;;;;;5071506;28;20636;-67
2022/11/14 11:06:37;;;;;;;34.47;20.50;;;;;;;;;;5068595;28;20275;-68
2022/11/14 11:11:54;;;;;;;33.00;19.93;;;;;;;;;;5075374;28;20523;-68
2022/11/14 11:14:20;;;;;;;34.93;19.43;;;;;;;;;;5089840;28;20187;-68
2022/11/14 11:16:45;;;;;;;33.37;19.67;;;;;;;;;;5084000;28;20609;-68
2022/11/14 11:19:24;;;;;;;29.17;18.37;;;;;;;;;;5076553;28;20288;-68
2022/11/14 11:21:51;;;;;;;29.50;18.00;;;;;;;;;;5083305;28;20211;-68
2022/11/14 11:24:33;;;;;;;28.90;18.63;;;;;;;;;;5084599;28;20639;-68
2022/11/14 11:27:14;;;;;;;33.03;19.52;;;;;;;;;;5073372;28;20671;-72
2022/11/14 11:29:39;;;;;;;28.77;18.50;;;;;;;;;;5088227;28;20252;-68
2022/11/14 11:32:07;;;;;;;30.42;17.48;;;;;;;;;;5070562;28;20224;-68
2022/11/14 11:34:33;;;;;;;27.65;17.75;;;;;;;;;;5071687;28;20189;-68
2022/11/14 11:37:17;;;;;;;32.83;18.30;;;;;;;;;;5087141;28;20191;-68
2022/11/14 11:39:53;;;;;;;29.17;17.88;;;;;;;;;;5089143;28;20271;-68
2022/11/14 11:42:33;;;;;;;32.42;17.85;;;;;;;;;;5068631;28;20212;-68
2022/11/14 11:45:03;;;;;;;31.90;18.90;;;;;;;;;;5069003;28;20243;-68
2022/11/14 11:47:32;;;;;;;29.08;17.98;;;;;;;;;;5075569;28;20191;-68
2022/11/14 11:49:59;;;;;;;29.85;18.35;;;;;;;;;;5079389;28;20184;-68
2022/11/14 11:52:36;;;;;;;29.60;17.23;;;;;;;;;;5067878;28;20183;-68
2022/11/14 11:55:07;;;;;;;25.63;16.35;;;;;;;;;;5084344;28;20670;-68
2022/11/14 11:57:44;;;;;;;24.98;15.68;;;;;;;;;;5088819;28;20233;-68
2022/11/14 12:00:21;;;;;;;27.08;16.40;;;;;;;;;;5087203;28;20211;-68
2022/11/14 12:02:51;;;;;;;23.45;14.57;;;;;;;;;;5078525;28;20187;-68
2022/11/14 12:05:55;;;;;;;23.88;15.73;;;;;;;;;;5070058;28;20679;-68
2022/11/14 12:08:47;;;;;;;26.95;16.58;;;;;;;;;;5071529;28;20172;-68
2022/11/14 12:11:17;;;;;;;25.02;16.27;;;;;;;;;;5045790;28;20223;-68
2022/11/14 12:13:47;;;;;;;25.17;15.80;;;;;;;;;;5073914;28;20364;-68
2022/11/14 12:16:24;;;;;;;24.63;15.88;;;;;;;;;;5070577;28;20192;-68
2022/11/14 12:19:10;;;;;;;23.13;15.45;;;;;;;;;;5082278;28;20640;-68
2022/11/14 12:21:36;;;;;;;23.20;15.50;;;;;;;;;;5084170;28;20659;-68
2022/11/14 12:24:33;;;;;;;24.10;15.95;;;;;;;;;;5081489;28;20231;-68
2022/11/14 12:27:28;;;;;;;24.50;14.85;;;;;;;;;;5045271;28;20189;-68
2022/11/14 12:30:07;;;;;;;23.90;15.93;;;;;;;;;;5083800;28;20242;-68
2022/11/14 12:32:38;;;;;;;28.40;16.17;;;;;;;;;;5088007;28;20644;-68
2022/11/14 12:35:12;;;;;;;24.52;15.65;;;;;;;;;;5086324;28;20569;-68
2022/11/14 12:37:44;;;;;;;22.92;15.50;;;;;;;;;;5082038;28;20222;-68
2022/11/14 12:40:25;;;;;;;25.95;16.02;;;;;;;;;;5091672;28;20268;-68
2022/11/14 12:42:51;;;;;;;25.75;15.00;;;;;;;;;;5082423;28;20636;-69
2022/11/14 12:45:34;;;;;;;22.95;16.23;;;;;;;;;;5082633;28;20183;-68
2022/11/14 12:48:28;;;;;;;23.35;15.90;;;;;;;;;;5073705;28;20185;-68
2022/11/14 12:50:55;;;;;;;27.15;16.90;;;;;;;;;;5089192;28;20284;-68
2022/11/14 12:53:41;;;;;;;26.10;15.98;;;;;;;;;;5089013;28;20188;-68
2022/11/14 12:56:13;;;;;;;24.98;16.58;;;;;;;;;;5092168;28;20292;-68
2022/11/14 12:58:50;;;;;;;25.02;17.00;;;;;;;;;;5073385;28;20188;-68
2022/11/14 13:01:23;;;;;;;24.92;16.15;;;;;;;;;;5072542;28;20592;-69
2022/11/14 13:04:27;;;;;;;26.30;15.85;;;;;;;;;;5071409;28;20603;-68
2022/11/14 13:07:24;;;;;;;23.60;15.77;;;;;;;;;;5086745;28;20279;-67
2022/11/14 13:10:17;;;;;;;23.65;16.40;;;;;;;;;;5080569;28;20988;-67
2022/11/14 13:21:44;;;;;;;24.63;15.07;;;;;;;;;;5080008;28;20267;-67
2022/11/14 13:22:11;;;;;;;21.70;14.00;;;;;;;;;;5071813;28;20219;-67
2022/11/14 13:24:56;;;;;;;20.15;13.48;;;;;;;;;;5086275;28;20588;-67
2022/11/14 13:27:30;;;;;;;20.13;13.15;;;;;;;;;;5081719;28;20216;-67
2022/11/14 13:29:56;;;;;;;17.98;12.25;;;;;;;;;;5079167;28;20550;-67
2022/11/14 13:32:54;;;;;;;18.35;12.45;;;;;;;;;;5084101;28;20237;-67
2022/11/14 13:35:44;;;;;;;16.75;11.23;;;;;;;;;;5058940;28;20628;-67
2022/11/14 13:38:30;;;;;;;16.92;11.77;;;;;;;;;;5040726;28;20263;-67
2022/11/14 13:41:31;;;;;;;17.80;11.10;;;;;;;;;;5052577;28;20568;-67
2022/11/14 13:44:28;;;;;;;17.67;10.85;;;;;;;;;;5049376;28;20293;-68
2022/11/14 13:46:56;;;;;;;15.65;10.23;;;;;;;;;;5031330;28;20534;-68
2022/11/14 13:49:40;;;;;;;14.23;9.48;;;;;;;;;;5030762;28;20174;-68
2022/11/14 13:52:05;;;;;;;14.55;9.23;;;;;;;;;;5032205;28;20185;-67
2022/11/14 13:54:31;;;;;;;15.18;9.70;;;;;;;;;;5031785;28;20248;-67
2022/11/14 13:57:08;;;;;;;14.73;9.98;;;;;;;;;;5028904;28;20189;-67
2022/11/14 13:59:51;;;;;;;16.58;9.63;;;;;;;;;;5029085;28;20307;-68
2022/11/14 14:02:39;;;;;;;14.52;10.05;;;;;;;;;;5036686;28;20720;-67
2022/11/14 14:05:16;;;;;;;14.77;10.27;;;;;;;;;;5031314;28;20253;-68
2022/11/14 14:08:06;;;;;;;15.60;9.50;;;;;;;;;;5024523;28;20198;-67
2022/11/14 14:10:45;;;;;;;15.75;9.68;;;;;;;;;;5028036;28;20320;-68
2022/11/14 14:13:36;;;;;;;15.60;9.65;;;;;;;;;;5027191;28;20200;-67
2022/11/14 14:16:09;;;;;;;14.95;9.77;;;;;;;;;;5025765;28;20201;-67
2022/11/14 14:18:44;;;;;;;15.35;9.75;;;;;;;;;;5031887;28;20285;-68
2022/11/14 14:21:20;;;;;;;15.50;9.85;;;;;;;;;;5053256;28;20177;-68
2022/11/14 14:23:57;;;;;;;15.23;9.73;;;;;;;;;;5038184;28;20200;-67
2022/11/14 14:26:25;;;;;;;14.73;8.93;;;;;;;;;;5041735;28;20209;-67
2022/11/14 14:29:15;;;;;;;13.20;8.93;;;;;;;;;;5031564;28;20185;-67
2022/11/14 14:31:41;;;;;;;18.88;9.23;;;;;;;;;;5042594;28;20334;-67
2022/11/14 14:34:25;;;;;;;13.63;9.43;;;;;;;;;;5039179;28;20316;-67